Christine, Texas
Current Conditions -  °F | °C
As of 8:35 AM on Saturday 20 Dec 2014 (Local Time) from KPEZ Reporting Station
Overcast Overcast  
Wind Chill: 50°   Ceiling: 1700
Heat Index: 50°   Visibility: 10mi
Dew Point: 44°   Wind: 0mph
Humidity: 79%   Direction: NA
Pressure: 30.24"   Gusts: NA
Location:  28.79°N, 98.5°W
Report Text: KPEZ 201435Z AUTO 00000KT 10SM OVC017 10/07 A3024 RMK AO2 T01000065
Loading
Personal Weather Stations






























Interactive Weather Map New forecast layout! Learn more

10-Day Weather Forecast

Advertisements
Track Severe Weather on mobile